Time;durP1;ratioP1;P1;durP2;ratioP2;P2;SDS_P1;SDS_P2;PMS_P1;PMS_P2;Temp;Humidity;BMP_temperature;BMP_pressure;BME280_temperature;BME280_humidity;BME280_pressure;Samples;Min_cycle;Max_cycle;Signal;HPM_P1;HPM_P2
2024/04/07 00:01:49;;;;;;;1.67;0.90;;;15.40;90.40;;;;;;4977199;28;20072;-82
2024/04/07 00:04:15;;;;;;;2.05;1.00;;;15.40;90.40;;;;;;4976627;28;20537;-83
2024/04/07 00:06:41;;;;;;;1.77;1.23;;;15.40;90.40;;;;;;4976923;28;20030;-84
2024/04/07 00:09:06;;;;;;;1.48;0.95;;;15.30;90.40;;;;;;4976950;28;20545;-83
2024/04/07 00:11:32;;;;;;;2.65;1.20;;;15.40;90.40;;;;;;4994948;28;20026;-82
2024/04/07 00:13:58;;;;;;;1.30;0.90;;;15.40;90.40;;;;;;4994165;28;20073;-83
2024/04/07 00:16:24;;;;;;;2.38;1.00;;;15.40;90.40;;;;;;4976752;28;20053;-83
2024/04/07 00:18:50;;;;;;;2.80;1.23;;;15.30;90.40;;;;;;4994263;28;20023;-83
2024/04/07 00:21:15;;;;;;;2.10;1.27;;;15.40;90.40;;;;;;4976693;28;20213;-83
2024/04/07 00:23:41;;;;;;;2.10;0.95;;;15.50;90.40;;;;;;4976540;28;20026;-82
2024/04/07 00:26:08;;;;;;;2.17;0.90;;;15.20;90.40;;;;;;4993916;28;20026;-82
2024/04/07 00:28:34;;;;;;;2.03;1.00;;;15.40;90.40;;;;;;4976532;28;20014;-83
2024/04/07 00:31:01;;;;;;;2.13;1.23;;;15.30;90.40;;;;;;4976042;28;20382;-82
2024/04/07 00:33:27;;;;;;;1.52;0.95;;;15.20;90.40;;;;;;4976144;28;20117;-83
2024/04/07 00:36:00;;;;;;;2.05;1.10;;;15.30;90.40;;;;;;4993656;28;20102;-81
2024/04/07 00:38:27;;;;;;;0.85;0.77;;;15.40;90.40;;;;;;4993736;28;20027;-81
2024/04/07 00:40:53;;;;;;;1.83;0.90;;;15.40;90.40;;;;;;4994713;28;20030;-82
2024/04/07 00:43:26;;;;;;;1.40;1.05;;;15.30;90.40;;;;;;4993974;28;20049;-83
2024/04/07 00:45:52;;;;;;;2.20;0.98;;;15.40;90.40;;;;;;4976571;28;20030;-82
2024/04/07 00:48:17;;;;;;;1.67;1.10;;;15.50;90.40;;;;;;4993737;28;20037;-82
2024/04/07 00:50:52;;;;;;;2.05;1.10;;;15.40;90.40;;;;;;4993275;28;20026;-82
2024/04/07 00:53:18;;;;;;;2.65;1.25;;;15.30;90.40;;;;;;4975917;28;20025;-83
2024/04/07 00:55:44;;;;;;;1.65;0.82;;;15.50;90.50;;;;;;4975877;28;20129;-83
2024/04/07 00:58:11;;;;;;;1.35;0.90;;;15.40;90.40;;;;;;4975784;28;20056;-82
2024/04/07 01:00:37;;;;;;;1.83;1.23;;;15.40;90.40;;;;;;4975844;28;20026;-81
2024/04/07 01:03:04;;;;;;;1.13;0.90;;;15.30;90.40;;;;;;4975686;28;20165;-82
2024/04/07 01:05:46;;;;;;;1.52;0.90;;;15.40;90.40;;;;;;4993414;28;20045;-82
2024/04/07 01:08:13;;;;;;;2.63;1.10;;;15.40;90.40;;;;;;4993170;28;20029;-83
2024/04/07 01:10:39;;;;;;;1.75;1.02;;;15.40;90.40;;;;;;4975581;28;20399;-82
2024/04/07 01:13:06;;;;;;;1.73;1.10;;;15.40;90.40;;;;;;4975617;28;20407;-82
2024/04/07 01:15:36;;;;;;;2.20;1.05;;;15.40;90.40;;;;;;4975689;28;20026;-83
2024/04/07 01:18:02;;;;;;;2.53;1.10;;;15.40;90.40;;;;;;4993500;28;20037;-82
2024/04/07 01:20:29;;;;;;;2.55;1.25;;;15.40;90.40;;;;;;4992757;28;20387;-82
2024/04/07 01:22:55;;;;;;;1.70;1.08;;;15.40;90.40;;;;;;4975741;28;20033;-83
2024/04/07 01:25:22;;;;;;;1.48;0.90;;;15.20;90.40;;;;;;4975573;28;20523;-81
2024/04/07 01:28:01;;;;;;;2.35;1.10;;;15.40;90.40;;;;;;4975553;28;20034;-83
2024/04/07 01:30:28;;;;;;;1.67;0.90;;;15.40;90.40;;;;;;4975682;28;20019;-81
2024/04/07 01:32:53;;;;;;;1.92;1.20;;;15.40;90.50;;;;;;4992794;28;20025;-83
2024/04/07 01:35:20;;;;;;;1.40;0.98;;;15.40;90.50;;;;;;4975646;28;20093;-82
2024/04/07 01:37:45;;;;;;;1.55;1.08;;;15.30;90.50;;;;;;4993087;28;20407;-82
2024/04/07 01:40:11;;;;;;;1.88;1.10;;;15.40;90.60;;;;;;4993155;28;20080;-83
2024/04/07 01:42:38;;;;;;;1.88;0.90;;;15.40;90.60;;;;;;4993185;28;20035;-82
2024/04/07 01:45:05;;;;;;;1.70;0.98;;;15.40;90.50;;;;;;4993125;28;20032;-83
2024/04/07 01:47:31;;;;;;;1.90;1.02;;;15.40;90.50;;;;;;4975483;28;20061;-82
2024/04/07 01:49:56;;;;;;;1.60;0.95;;;15.40;90.50;;;;;;4975563;28;20475;-82
2024/04/07 01:52:23;;;;;;;2.03;1.00;;;15.40;90.50;;;;;;4975257;28;20026;-82
2024/04/07 01:54:48;;;;;;;2.00;1.13;;;15.40;90.40;;;;;;4975493;28;20030;-83
2024/04/07 01:57:14;;;;;;;2.65;1.17;;;15.50;90.50;;;;;;4993000;28;20118;-82
2024/04/07 01:59:39;;;;;;;1.60;1.00;;;15.40;90.50;;;;;;4992818;28;20030;-83
2024/04/07 02:02:05;;;;;;;1.80;1.00;;;15.40;90.50;;;;;;4975845;28;20030;-82
2024/04/07 02:04:31;;;;;;;2.38;1.30;;;15.40;90.40;;;;;;4992972;28;20037;-83
2024/04/07 02:06:57;;;;;;;2.55;1.08;;;15.30;90.50;;;;;;4992965;28;20081;-83
2024/04/07 02:09:23;;;;;;;1.70;1.05;;;15.40;90.50;;;;;;4992583;28;20109;-82
2024/04/07 02:11:48;;;;;;;2.13;0.90;;;15.40;90.50;;;;;;4992583;28;20022;-83
2024/04/07 02:14:14;;;;;;;1.80;0.90;;;15.40;90.50;;;;;;4992706;28;20081;-82
2024/04/07 02:16:40;;;;;;;2.40;1.20;;;15.40;90.50;;;;;;4992695;28;20049;-83
2024/04/07 02:19:06;;;;;;;1.80;0.90;;;15.30;90.40;;;;;;4994744;28;20038;-83
2024/04/07 02:21:33;;;;;;;2.85;1.00;;;15.50;90.50;;;;;;4978698;28;20034;-82
2024/04/07 02:23:59;;;;;;;2.13;1.00;;;15.40;90.50;;;;;;4978816;28;20030;-82
2024/04/07 02:26:26;;;;;;;2.45;1.13;;;15.50;90.50;;;;;;4996324;28;20066;-83
2024/04/07 02:28:52;;;;;;;3.63;1.20;;;15.40;90.50;;;;;;4978613;28;20026;-82
2024/04/07 02:31:17;;;;;;;2.25;1.00;;;15.50;90.50;;;;;;4978729;28;20114;-82
2024/04/07 02:33:46;;;;;;;2.17;1.00;;;15.40;90.40;;;;;;4995898;28;20447;-83
2024/04/07 02:36:14;;;;;;;2.10;0.90;;;15.40;90.40;;;;;;4996051;28;20391;-82
2024/04/07 02:38:40;;;;;;;1.85;1.10;;;15.40;90.40;;;;;;4978431;28;20061;-83
2024/04/07 02:41:05;;;;;;;1.58;0.90;;;15.40;90.40;;;;;;4978554;28;20419;-82
2024/04/07 02:43:31;;;;;;;2.13;1.08;;;15.30;90.40;;;;;;4996509;28;20121;-82
2024/04/07 02:48:44;;;;;;;2.00;0.90;;;15.40;90.50;;;;;;4996008;28;20057;-83
2024/04/07 02:51:10;;;;;;;1.80;1.00;;;15.40;90.40;;;;;;4978334;28;20471;-83
2024/04/07 02:53:36;;;;;;;2.35;1.15;;;15.40;90.40;;;;;;4978184;28;20092;-83
2024/04/07 02:56:02;;;;;;;2.00;1.00;;;15.40;90.40;;;;;;4978032;28;20026;-82
2024/04/07 02:58:28;;;;;;;1.88;1.10;;;15.40;90.40;;;;;;4995982;28;20479;-81
2024/04/07 03:01:04;;;;;;;1.20;0.80;;;15.40;90.40;;;;;;4995545;28;20029;-81
2024/04/07 03:03:30;;;;;;;1.98;1.05;;;15.40;90.40;;;;;;4995685;28;20027;-83
2024/04/07 03:05:57;;;;;;;2.00;1.10;;;15.40;90.40;;;;;;4995518;28;20027;-82
2024/04/07 03:08:22;;;;;;;2.67;0.95;;;15.40;90.40;;;;;;4977940;28;20022;-82
2024/04/07 03:10:59;;;;;;;2.00;1.10;;;15.40;90.40;;;;;;4977941;28;20085;-82
2024/04/07 03:13:24;;;;;;;2.10;1.05;;;15.50;90.30;;;;;;4995514;28;20050;-83
2024/04/07 03:15:50;;;;;;;2.10;0.82;;;15.40;90.30;;;;;;4995344;28;20050;-82
2024/04/07 03:18:15;;;;;;;1.13;0.85;;;15.40;90.30;;;;;;4977835;28;20061;-82
2024/04/07 03:20:41;;;;;;;1.38;0.90;;;15.40;90.40;;;;;;4977699;28;20026;-82
2024/04/07 03:23:07;;;;;;;1.75;0.95;;;15.50;90.30;;;;;;4977558;28;20034;-82
2024/04/07 03:25:32;;;;;;;2.67;0.93;;;15.30;90.30;;;;;;4977717;28;20466;-83
2024/04/07 03:27:58;;;;;;;3.25;1.20;;;15.30;90.20;;;;;;4995097;28;20474;-83
2024/04/07 03:30:23;;;;;;;3.05;1.13;;;15.40;90.30;;;;;;4976964;28;20470;-82
2024/04/07 03:32:49;;;;;;;1.92;1.02;;;15.40;90.30;;;;;;4977632;28;20022;-83
2024/04/07 03:35:14;;;;;;;1.13;0.82;;;15.50;90.30;;;;;;4995189;28;20407;-82
2024/04/07 03:37:40;;;;;;;2.60;1.10;;;15.40;90.30;;;;;;4995311;28;20368;-82
2024/04/07 03:40:06;;;;;;;2.13;1.13;;;15.40;90.30;;;;;;4977307;28;20447;-82
2024/04/07 03:42:32;;;;;;;1.70;0.90;;;15.40;90.30;;;;;;4979218;28;20038;-81
2024/04/07 03:44:57;;;;;;;2.80;1.20;;;15.40;90.30;;;;;;4994977;28;20409;-82
2024/04/07 03:47:23;;;;;;;2.42;1.02;;;15.40;90.30;;;;;;4977163;28;20034;-82
2024/04/07 03:49:48;;;;;;;2.20;0.90;;;15.40;90.30;;;;;;4977151;28;20122;-81
2024/04/07 03:52:14;;;;;;;2.00;1.02;;;15.40;90.30;;;;;;4977334;28;20019;-82
2024/04/07 03:54:39;;;;;;;2.78;1.00;;;15.30;90.20;;;;;;4994427;28;20464;-82
2024/04/07 03:57:05;;;;;;;2.08;0.90;;;15.40;90.20;;;;;;4977054;28;20454;-83
2024/04/07 03:59:30;;;;;;;1.38;0.90;;;15.40;90.20;;;;;;4977087;28;20104;-83
2024/04/07 04:01:59;;;;;;;2.72;1.10;;;15.50;90.30;;;;;;4977278;28;20073;-82
2024/04/07 04:04:24;;;;;;;1.95;1.10;;;15.50;90.20;;;;;;4976854;28;20471;-83
2024/04/07 04:06:50;;;;;;;2.85;1.10;;;15.40;90.20;;;;;;4994243;28;20037;-81
2024/04/07 04:09:16;;;;;;;2.67;1.00;;;15.40;90.20;;;;;;4977026;28;20026;-83
2024/04/07 04:11:42;;;;;;;2.58;1.05;;;15.50;90.30;;;;;;4976603;28;20029;-82
2024/04/07 04:14:07;;;;;;;2.63;1.20;;;15.40;90.30;;;;;;4976714;28;20419;-82
2024/04/07 04:16:33;;;;;;;1.67;0.90;;;15.50;90.30;;;;;;4976848;28;20399;-83
2024/04/07 04:18:59;;;;;;;2.72;1.10;;;15.40;90.20;;;;;;4994416;28;20096;-81
2024/04/07 04:21:25;;;;;;;2.17;1.00;;;15.50;90.30;;;;;;4993949;28;20495;-82
2024/04/07 04:23:50;;;;;;;2.10;1.00;;;15.50;90.30;;;;;;4993964;28;20050;-82
2024/04/07 04:26:16;;;;;;;1.50;0.88;;;15.40;90.30;;;;;;4976683;28;20479;-83
2024/04/07 04:28:41;;;;;;;2.30;1.20;;;15.40;90.30;;;;;;4994017;28;20022;-83
2024/04/07 04:31:09;;;;;;;3.05;1.10;;;15.50;90.30;;;;;;4976839;28;20030;-82
2024/04/07 04:33:35;;;;;;;2.05;1.08;;;15.50;90.40;;;;;;4994090;28;20027;-83
2024/04/07 04:36:01;;;;;;;2.13;1.00;;;15.50;90.40;;;;;;4976411;28;20058;-82
2024/04/07 04:38:27;;;;;;;2.33;1.10;;;15.50;90.40;;;;;;4976083;28;20089;-82
2024/04/07 04:40:53;;;;;;;2.00;1.00;;;15.40;90.30;;;;;;4994280;28;20076;-84
2024/04/07 04:43:19;;;;;;;2.10;1.10;;;15.40;90.40;;;;;;4976903;28;20026;-83
2024/04/07 04:46:08;;;;;;;1.58;0.93;;;15.40;90.40;;;;;;4976213;28;20380;-81
2024/04/07 04:48:34;;;;;;;2.40;0.90;;;15.40;90.40;;;;;;4986978;28;20045;-83
2024/04/07 04:51:00;;;;;;;2.28;1.00;;;15.40;90.40;;;;;;4975879;28;20086;-82
2024/04/07 04:53:27;;;;;;;1.48;0.90;;;15.40;90.40;;;;;;4993437;28;20026;-83
2024/04/07 04:55:53;;;;;;;2.03;1.00;;;15.40;90.40;;;;;;4993325;28;20031;-83
2024/04/07 04:58:19;;;;;;;4.35;1.33;;;15.30;90.40;;;;;;4993371;28;20031;-82
2024/04/07 05:00:45;;;;;;;2.50;1.13;;;15.30;90.40;;;;;;4993373;28;20033;-83
2024/04/07 05:03:12;;;;;;;2.47;0.90;;;15.40;90.40;;;;;;4992466;28;20027;-83
2024/04/07 05:05:37;;;;;;;2.05;0.90;;;15.40;90.40;;;;;;4993452;28;20108;-83
2024/04/07 05:08:05;;;;;;;1.52;1.00;;;15.50;90.50;;;;;;4976059;28;20503;-82
2024/04/07 05:10:30;;;;;;;2.20;1.00;;;15.40;90.50;;;;;;4993194;28;20049;-82
2024/04/07 05:12:56;;;;;;;1.52;0.90;;;15.50;90.50;;;;;;4976059;28;20387;-82
2024/04/07 05:15:22;;;;;;;1.88;0.93;;;15.50;90.50;;;;;;4975857;28;20034;-82
2024/04/07 05:17:47;;;;;;;1.55;0.80;;;15.40;90.50;;;;;;4993438;28;20030;-83
2024/04/07 05:20:15;;;;;;;2.22;1.00;;;15.30;90.50;;;;;;4975688;28;20061;-81
2024/04/07 05:22:41;;;;;;;0.95;0.70;;;15.30;90.50;;;;;;4975911;28;20030;-82
2024/04/07 05:25:07;;;;;;;2.20;0.93;;;15.30;90.50;;;;;;4975609;28;20376;-82
2024/04/07 05:27:33;;;;;;;1.35;0.90;;;15.30;90.50;;;;;;4975777;28;20018;-82
2024/04/07 05:29:58;;;;;;;2.05;0.93;;;15.50;90.60;;;;;;4993309;28;20079;-81
2024/04/07 05:32:24;;;;;;;1.88;1.00;;;15.50;90.60;;;;;;4975648;28;20126;-83
2024/04/07 05:34:50;;;;;;;1.65;0.90;;;15.40;90.50;;;;;;4993448;28;20027;-82
2024/04/07 05:37:15;;;;;;;1.67;0.93;;;15.50;90.60;;;;;;4975774;28;20498;-83
2024/04/07 05:39:48;;;;;;;1.60;0.80;;;15.40;90.50;;;;;;4992985;28;20026;-82
2024/04/07 05:42:13;;;;;;;2.53;1.00;;;15.40;90.80;;;;;;4993655;28;20042;-83
2024/04/07 05:44:39;;;;;;;1.63;0.90;;;15.40;90.50;;;;;;4975650;28;20030;-84
2024/04/07 05:47:04;;;;;;;1.80;1.00;;;15.40;90.50;;;;;;4993165;28;20041;-83
2024/04/07 05:49:33;;;;;;;1.15;0.80;;;15.40;90.50;;;;;;4975454;28;20475;-83
2024/04/07 05:51:58;;;;;;;2.03;0.90;;;15.40;90.50;;;;;;4993135;28;20049;-83
2024/04/07 05:54:26;;;;;;;2.05;0.98;;;15.50;90.60;;;;;;4978499;28;20392;-82
2024/04/07 05:56:52;;;;;;;1.27;0.90;;;15.50;90.60;;;;;;4997074;28;20037;-82
2024/04/07 05:59:17;;;;;;;1.60;1.08;;;15.40;90.50;;;;;;4979302;28;20022;-83
2024/04/07 06:01:43;;;;;;;1.50;0.95;;;15.40;90.50;;;;;;4997184;28;20034;-85
2024/04/07 06:04:08;;;;;;;2.28;0.98;;;15.50;90.60;;;;;;4997367;28;20117;-83
2024/04/07 06:06:35;;;;;;;1.63;0.90;;;15.50;90.50;;;;;;4979024;28;20065;-82
2024/04/07 06:09:00;;;;;;;2.22;0.90;;;15.50;90.50;;;;;;4996806;28;20030;-82
2024/04/07 06:11:26;;;;;;;1.40;0.80;;;15.50;90.50;;;;;;4990752;28;20041;-82
2024/04/07 06:13:51;;;;;;;1.40;0.90;;;15.50;90.50;;;;;;4977618;28;20118;-86
2024/04/07 06:16:17;;;;;;;1.58;0.90;;;15.50;90.50;;;;;;4979957;28;20034;-81
2024/04/07 06:18:46;;;;;;;1.88;1.00;;;15.50;90.50;;;;;;4976376;28;20026;-85
2024/04/07 06:21:12;;;;;;;1.17;0.90;;;15.50;90.50;;;;;;4961514;28;20029;-86
2024/04/07 06:23:40;;;;;;;2.10;0.90;;;15.50;90.50;;;;;;4977608;28;20053;-86
2024/04/07 06:26:06;;;;;;;1.10;0.80;;;15.50;90.50;;;;;;4978060;28;20034;-85
2024/04/07 06:28:32;;;;;;;1.48;0.80;;;15.50;90.50;;;;;;4978864;28;20053;-85
2024/04/07 06:30:57;;;;;;;1.50;0.95;;;15.40;90.40;;;;;;4978540;28;20109;-85
2024/04/07 06:33:26;;;;;;;1.85;0.77;;;15.40;90.40;;;;;;4978504;28;20031;-83
2024/04/07 06:35:52;;;;;;;1.45;0.80;;;15.50;90.50;;;;;;4979687;28;20034;-85
2024/04/07 06:38:18;;;;;;;1.20;0.75;;;15.50;90.50;;;;;;4978648;28;20023;-85
2024/04/07 06:40:43;;;;;;;0.90;0.80;;;15.50;90.50;;;;;;4979763;28;20492;-83
2024/04/07 06:43:09;;;;;;;1.17;0.80;;;15.50;90.50;;;;;;4959629;28;20027;-86
2024/04/07 06:45:35;;;;;;;1.65;0.80;;;15.40;90.50;;;;;;4975494;28;20039;-82
2024/04/07 06:48:00;;;;;;;0.82;0.68;;;15.50;90.50;;;;;;4977603;28;20523;-86
2024/04/07 06:50:26;;;;;;;1.58;0.93;;;15.50;90.50;;;;;;4960766;28;20033;-85
2024/04/07 06:52:51;;;;;;;1.17;0.88;;;15.50;90.50;;;;;;4978603;28;20058;-85
2024/04/07 06:55:17;;;;;;;1.40;0.70;;;15.50;90.50;;;;;;4975796;28;20038;-87
2024/04/07 06:57:44;;;;;;;1.90;0.82;;;15.50;90.50;;;;;;4992663;28;20050;-85
2024/04/07 07:00:12;;;;;;;1.52;0.90;;;15.50;90.50;;;;;;4995117;28;20735;-84
2024/04/07 07:02:40;;;;;;;1.50;0.90;;;15.50;90.50;;;;;;4995382;28;20110;-81
2024/04/07 07:05:05;;;;;;;0.98;0.65;;;15.50;90.60;;;;;;4996039;28;20085;-86
2024/04/07 07:07:31;;;;;;;1.70;0.90;;;15.50;90.60;;;;;;4996046;28;20045;-85
2024/04/07 07:09:57;;;;;;;1.33;0.70;;;15.50;90.60;;;;;;4996885;28;20085;-85
2024/04/07 07:12:23;;;;;;;1.67;0.68;;;15.50;90.60;;;;;;4995747;28;20026;-85
2024/04/07 07:14:49;;;;;;;1.05;0.80;;;15.50;90.60;;;;;;4995620;28;20027;-86
2024/04/07 07:17:15;;;;;;;1.95;0.90;;;15.50;90.60;;;;;;4996614;28;20022;-86
2024/04/07 07:19:41;;;;;;;1.55;0.80;;;15.50;90.50;;;;;;4994680;28;20026;-86
2024/04/07 07:22:07;;;;;;;1.17;0.80;;;15.50;90.50;;;;;;4995137;28;20041;-85
2024/04/07 07:24:32;;;;;;;1.85;0.90;;;15.50;90.50;;;;;;4996519;28;20065;-84
2024/04/07 07:26:58;;;;;;;1.75;0.80;;;15.50;90.50;;;;;;4994647;28;20069;-86
2024/04/07 07:29:24;;;;;;;1.63;0.90;;;15.50;90.50;;;;;;4995573;28;20022;-82
2024/04/07 07:31:50;;;;;;;1.60;0.85;;;15.50;90.60;;;;;;4994990;28;20087;-84
2024/04/07 07:34:27;;;;;;;1.90;0.90;;;15.50;90.50;;;;;;4996512;28;20036;-86
2024/04/07 07:36:56;;;;;;;1.17;0.82;;;15.50;90.50;;;;;;4994106;28;20045;-85
2024/04/07 07:39:21;;;;;;;2.22;1.02;;;15.40;90.50;;;;;;4992257;28;20026;-84
2024/04/07 07:41:47;;;;;;;2.08;1.00;;;15.40;90.50;;;;;;4993552;28;20034;-82
2024/04/07 07:46:56;;;;;;;1.90;0.90;;;15.60;90.50;;;;;;4995215;28;20073;-83
2024/04/07 07:49:38;;;;;;;0.82;0.70;;;15.80;90.50;;;;;;4977660;28;20030;-83
2024/04/07 07:52:08;;;;;;;1.60;0.88;;;15.60;90.50;;;;;;4977764;28;20023;-84
2024/04/07 07:54:33;;;;;;;1.85;0.85;;;15.50;90.40;;;;;;4975103;28;20456;-80
2024/04/07 07:56:59;;;;;;;1.50;0.70;;;15.70;90.30;;;;;;4975156;28;20094;-84
2024/04/07 07:59:33;;;;;;;1.35;0.82;;;15.70;90.30;;;;;;4975150;28;20166;-86
2024/04/07 08:01:58;;;;;;;1.50;0.70;;;15.80;90.20;;;;;;4973559;28;20031;-82
2024/04/07 08:04:27;;;;;;;1.88;0.95;;;15.80;90.20;;;;;;4975016;28;20041;-83
2024/04/07 08:07:02;;;;;;;2.17;0.90;;;15.80;90.20;;;;;;4974778;28;20031;-83
2024/04/07 08:09:28;;;;;;;1.77;0.80;;;15.80;90.20;;;;;;4974788;28;20027;-84
2024/04/07 08:12:12;;;;;;;1.52;0.85;;;15.70;90.20;;;;;;4972927;28;20049;-82
2024/04/07 08:14:38;;;;;;;1.38;0.70;;;15.90;90.30;;;;;;4973958;28;20030;-83
2024/04/07 08:17:04;;;;;;;1.90;0.98;;;15.70;90.20;;;;;;4968957;28;20686;-84
2024/04/07 08:19:34;;;;;;;2.42;0.90;;;15.80;90.20;;;;;;4989048;28;20033;-83
2024/04/07 08:22:32;;;;;;;;;;;;;;;;;;;;;
2024/04/07 08:25:41;;;;;;;1.80;0.80;;;15.80;90.20;;;;;;4974355;28;20126;-86
2024/04/07 08:28:36;;;;;;;3.33;0.77;;;15.80;90.20;;;;;;4977312;28;20113;-84
2024/04/07 08:31:12;;;;;;;1.65;0.85;;;15.80;90.20;;;;;;4977216;28;20026;-84
2024/04/07 08:33:38;;;;;;;1.80;0.80;;;15.80;90.30;;;;;;4958895;28;20031;-84
2024/04/07 08:36:14;;;;;;;2.00;0.70;;;15.80;90.30;;;;;;4977107;28;20026;-83
2024/04/07 08:38:42;;;;;;;2.13;0.80;;;15.80;90.30;;;;;;4979970;28;20526;-84
2024/04/07 08:41:14;;;;;;;1.00;0.70;;;15.80;90.40;;;;;;4980596;28;20030;-83
2024/04/07 08:43:46;;;;;;;1.77;0.98;;;15.80;90.40;;;;;;4979216;28;20034;-85
2024/04/07 08:46:17;;;;;;;1.33;0.80;;;15.70;90.40;;;;;;4979699;28;20415;-83
2024/04/07 08:48:50;;;;;;;2.17;0.90;;;15.70;90.40;;;;;;4979413;28;20058;-84
2024/04/07 08:51:24;;;;;;;1.45;0.73;;;15.70;90.40;;;;;;4980569;28;20022;-84
2024/04/07 08:54:03;;;;;;;2.22;0.80;;;15.70;90.40;;;;;;4978555;28;20089;-79
2024/04/07 08:56:29;;;;;;;2.03;0.77;;;15.70;90.40;;;;;;4975813;28;20840;-84
2024/04/07 08:58:58;;;;;;;1.80;0.90;;;15.70;90.40;;;;;;4974951;28;20029;-81
2024/04/07 09:01:31;;;;;;;0.95;0.68;;;15.70;90.40;;;;;;4992420;28;20423;-86
2024/04/07 09:04:00;;;;;;;1.65;0.70;;;15.60;90.40;;;;;;4966918;28;20027;-87
2024/04/07 09:06:31;;;;;;;2.03;0.75;;;15.70;90.40;;;;;;4957017;28;20430;-86
2024/04/07 09:08:58;;;;;;;2.45;0.82;;;15.70;90.40;;;;;;4980692;28;20041;-85
2024/04/07 09:11:27;;;;;;;1.17;0.75;;;15.70;90.40;;;;;;4973862;28;20184;-84
2024/04/07 09:13:52;;;;;;;2.17;0.80;;;15.70;90.40;;;;;;4974670;28;20049;-85
2024/04/07 09:16:18;;;;;;;1.95;0.90;;;15.70;90.40;;;;;;4992215;28;20022;-87
2024/04/07 09:18:45;;;;;;;2.30;0.90;;;15.70;90.40;;;;;;4974199;28;20722;-85
2024/04/07 09:21:22;;;;;;;1.33;0.77;;;15.70;90.40;;;;;;4992813;28;20022;-86
2024/04/07 09:23:50;;;;;;;0.93;0.70;;;15.70;90.30;;;;;;4990797;28;20030;-81
2024/04/07 09:26:16;;;;;;;1.52;0.90;;;15.80;90.30;;;;;;4967609;28;20042;-80
2024/04/07 09:28:43;;;;;;;1.77;0.80;;;15.80;90.30;;;;;;4970409;28;20031;-83
2024/04/07 09:31:08;;;;;;;1.55;0.68;;;15.80;90.20;;;;;;4997203;28;20037;-82
2024/04/07 09:33:35;;;;;;;1.90;0.90;;;15.90;90.20;;;;;;4996571;28;20486;-82
2024/04/07 09:36:02;;;;;;;1.75;0.80;;;15.90;90.10;;;;;;4979903;28;20030;-83
2024/04/07 09:38:28;;;;;;;1.25;0.80;;;15.90;90.10;;;;;;4980552;28;20061;-84
2024/04/07 09:40:58;;;;;;;1.85;0.90;;;16.00;90.10;;;;;;4980580;28;20498;-84
2024/04/07 10:45:01;;;;;;;0.70;0.65;;;16.40;89.40;;;;;;916306;23;21647;-86
2024/04/07 10:51:48;;;;;;;1.48;0.70;;;16.40;89.50;;;;;;4937664;29;20032;-85
2024/04/07 10:54:29;;;;;;;0.60;0.60;;;16.40;89.60;;;;;;4954461;28;20035;-83
2024/04/07 10:57:07;;;;;;;0.75;0.60;;;16.40;89.50;;;;;;4949469;29;20102;-83
2024/04/07 10:59:46;;;;;;;1.33;0.70;;;16.40;89.90;;;;;;4959728;29;20047;-84
2024/04/07 11:05:29;;;;;;;;;;;;;;;;;;;;;
2024/04/07 11:33:39;;;;;;;4.10;1.02;;;16.30;89.50;;;;;;4928097;29;20118;-85
2024/04/07 11:43:26;;;;;;;;;;;;;;;;;;;;;
2024/04/07 11:46:27;;;;;;;2.78;0.70;;;16.40;89.40;;;;;;4877992;29;20508;-82
2024/04/07 11:52:28;;;;;;;3.45;0.90;;;16.40;89.20;;;;;;4857034;29;20029;-81
2024/04/07 11:54:53;;;;;;;;;;;16.40;89.10;;;;;;4866524;29;20053;-85
2024/04/07 11:57:19;;;;;;;6.97;0.93;;;16.50;89.10;;;;;;4882729;29;19919;-85
2024/04/07 11:59:44;;;;;;;2.80;0.90;;;16.50;89.10;;;;;;4915472;29;20032;-85
2024/04/07 12:02:10;;;;;;;5.03;1.17;;;16.50;89.00;;;;;;4915201;29;20107;-86
2024/04/07 12:04:35;;;;;;;5.05;1.10;;;16.50;88.90;;;;;;4899600;29;20067;-85
2024/04/07 12:07:01;;;;;;;2.58;0.80;;;16.40;88.80;;;;;;4914851;29;20056;-85
2024/04/07 12:09:28;;;;;;;3.17;1.00;;;16.60;88.90;;;;;;4915030;29;20043;-84
2024/04/07 12:11:54;;;;;;;3.10;0.95;;;16.60;88.80;;;;;;4899630;29;20111;-85
2024/04/07 12:14:19;;;;;;;1.92;0.63;;;16.60;88.70;;;;;;4899156;29;20119;-85
2024/04/07 12:16:45;;;;;;;1.50;0.60;;;16.60;88.70;;;;;;4915192;29;20520;-85
2024/04/07 12:19:13;;;;;;;3.13;0.80;;;16.60;88.70;;;;;;4899446;29;20032;-85
2024/04/07 12:21:38;;;;;;;3.65;0.77;;;16.60;88.60;;;;;;4899250;29;20482;-86
2024/04/07 12:24:04;;;;;;;1.73;0.73;;;16.60;88.60;;;;;;4915020;29;20024;-84
2024/04/07 12:26:30;;;;;;;2.00;0.82;;;16.60;88.60;;;;;;4899001;29;20040;-85
2024/04/07 12:28:55;;;;;;;2.95;0.52;;;16.60;88.60;;;;;;4939942;28;20034;-85
2024/04/07 12:31:21;;;;;;;1.90;0.65;;;16.60;88.60;;;;;;4957189;28;20054;-85
2024/04/07 12:33:49;;;;;;;1.02;0.70;;;16.60;88.60;;;;;;4974468;28;20480;-85
2024/04/07 12:36:17;;;;;;;2.80;0.90;;;16.60;88.60;;;;;;4957221;28;20027;-85
2024/04/07 12:38:43;;;;;;;2.80;0.80;;;16.60;88.60;;;;;;4974661;28;20031;-85
2024/04/07 12:41:08;;;;;;;1.67;0.60;;;16.50;88.60;;;;;;4956926;28;20031;-85
2024/04/07 12:43:34;;;;;;;2.85;0.60;;;16.60;88.60;;;;;;4974297;28;20034;-85
2024/04/07 12:46:00;;;;;;;2.25;0.65;;;16.60;88.60;;;;;;4957012;28;20093;-86
2024/04/07 12:48:25;;;;;;;2.67;0.80;;;16.60;88.70;;;;;;4956940;28;20027;-85
2024/04/07 12:50:52;;;;;;;2.42;0.60;;;16.60;89.30;;;;;;4974167;28;20023;-85
2024/04/07 12:53:17;;;;;;;1.90;0.60;;;16.60;88.80;;;;;;4974133;28;20019;-85
2024/04/07 12:55:43;;;;;;;2.45;0.90;;;16.50;88.90;;;;;;4956841;28;20126;-86
2024/04/07 12:58:09;;;;;;;1.60;0.60;;;16.60;89.00;;;;;;4956991;28;20086;-86
2024/04/07 13:00:35;;;;;;;1.02;0.60;;;16.50;89.00;;;;;;4956724;28;20023;-85
2024/04/07 13:03:02;;;;;;;2.10;0.75;;;16.60;89.00;;;;;;4973788;28;20034;-85
2024/04/07 13:05:28;;;;;;;2.17;0.70;;;16.60;89.00;;;;;;4956679;28;20487;-84
2024/04/07 13:07:54;;;;;;;2.15;0.70;;;16.60;88.90;;;;;;4973550;28;20119;-86
2024/04/07 13:10:20;;;;;;;2.58;0.70;;;16.60;88.90;;;;;;4973763;28;20100;-85
2024/04/07 13:12:46;;;;;;;1.10;0.60;;;16.60;89.00;;;;;;4956439;28;20027;-85
2024/04/07 13:15:13;;;;;;;2.65;0.80;;;16.60;88.90;;;;;;4973881;28;20086;-85
2024/04/07 13:17:39;;;;;;;1.42;0.70;;;16.60;88.90;;;;;;4956828;28;20030;-85
2024/04/07 13:20:05;;;;;;;1.67;0.70;;;16.40;88.70;;;;;;4956483;28;20030;-85
2024/04/07 13:22:31;;;;;;;2.75;0.65;;;16.60;88.90;;;;;;4956515;28;20092;-85
2024/04/07 13:24:58;;;;;;;1.70;0.60;;;16.70;88.90;;;;;;4956431;28;20031;-85
2024/04/07 13:27:24;;;;;;;1.52;0.60;;;16.50;88.90;;;;;;4956391;28;20034;-85
2024/04/07 13:29:50;;;;;;;2.60;0.80;;;16.50;88.90;;;;;;4956022;28;20023;-85
2024/04/07 13:32:16;;;;;;;1.48;0.50;;;16.60;89.00;;;;;;4973802;28;20045;-85
2024/04/07 13:34:41;;;;;;;1.50;0.60;;;16.50;89.00;;;;;;4956480;28;20030;-84
2024/04/07 13:37:07;;;;;;;0.73;0.50;;;16.60;89.00;;;;;;4974118;28;20030;-85
2024/04/07 13:39:32;;;;;;;2.78;0.70;;;16.40;88.90;;;;;;4956193;28;20494;-85
2024/04/07 13:41:58;;;;;;;1.58;0.80;;;16.70;89.10;;;;;;4973822;28;20031;-85
2024/04/07 13:44:24;;;;;;;1.30;0.60;;;16.50;89.00;;;;;;4956412;28;20121;-85
2024/04/07 13:46:52;;;;;;;0.70;0.50;;;16.50;89.10;;;;;;4973487;28;20030;-85
2024/04/07 13:49:19;;;;;;;1.67;0.70;;;16.60;89.20;;;;;;4956296;28;20391;-84
2024/04/07 13:51:45;;;;;;;1.40;0.65;;;16.50;89.20;;;;;;4956176;28;20053;-85
2024/04/07 13:54:10;;;;;;;1.55;0.70;;;16.50;89.30;;;;;;4972236;28;20027;-85
2024/04/07 13:56:36;;;;;;;1.10;0.55;;;16.60;89.40;;;;;;4973712;28;20158;-85
2024/04/07 13:59:02;;;;;;;0.93;0.47;;;16.50;89.40;;;;;;4956310;28;20034;-84
2024/04/07 14:01:27;;;;;;;1.38;0.50;;;16.50;89.40;;;;;;4973324;28;20034;-85
2024/04/07 14:03:53;;;;;;;0.55;0.45;;;16.50;89.40;;;;;;4956115;28;20027;-85
2024/04/07 14:06:18;;;;;;;2.22;0.93;;;16.60;89.50;;;;;;4955731;28;20026;-86
2024/04/07 14:08:44;;;;;;;0.88;0.50;;;16.50;89.40;;;;;;4973487;28;20038;-85
2024/04/07 14:11:10;;;;;;;1.40;0.50;;;16.50;89.40;;;;;;4973375;28;20468;-85
2024/04/07 14:13:35;;;;;;;1.73;0.70;;;16.50;89.50;;;;;;4955902;28;20031;-84
2024/04/07 14:16:01;;;;;;;0.88;0.60;;;16.40;89.50;;;;;;4959698;28;20069;-85
2024/04/07 14:18:27;;;;;;;1.38;0.60;;;16.60;89.60;;;;;;4977055;28;20397;-85
2024/04/07 14:20:52;;;;;;;1.15;0.47;;;16.50;89.60;;;;;;4959485;28;20399;-84
2024/04/07 14:23:18;;;;;;;3.47;0.60;;;16.50;89.70;;;;;;4977027;28;20447;-85
2024/04/07 14:25:44;;;;;;;1.02;0.52;;;16.50;89.70;;;;;;4959586;28;20510;-85
2024/04/07 14:28:11;;;;;;;1.42;0.57;;;16.50;89.70;;;;;;4959491;28;20027;-85
2024/04/07 14:30:36;;;;;;;0.75;0.50;;;16.50;89.80;;;;;;4959076;28;20113;-86
2024/04/07 14:33:02;;;;;;;2.78;0.70;;;16.50;89.80;;;;;;4976700;28;20538;-86
2024/04/07 14:35:29;;;;;;;1.25;0.63;;;16.40;89.80;;;;;;4959012;28;20074;-84
2024/04/07 14:37:54;;;;;;;1.05;0.50;;;16.40;89.80;;;;;;4977005;28;20084;-85
2024/04/07 14:40:21;;;;;;;1.25;0.70;;;16.40;89.90;;;;;;4976226;28;20487;-85
2024/04/07 14:42:46;;;;;;;2.08;0.68;;;16.40;89.90;;;;;;4959199;28;20031;-85